Time;durP1;ratioP1;P1;durP2;ratioP2;P2;SDS_P1;SDS_P2;PMS_P1;PMS_P2;Temp;Humidity;BMP_temperature;BMP_pressure;BME280_temperature;BME280_humidity;BME280_pressure;Samples;Min_cycle;Max_cycle;Signal;HPM_P1;HPM_P2
2022/08/24 00:02:01;;;;;;;2.65;1.55;;;19.00;96.40;;;;;;4972655;28;20218;-88
2022/08/24 00:04:27;;;;;;;4.28;1.33;;;19.00;96.50;;;;;;4973645;28;20156;-88
2022/08/24 00:06:53;;;;;;;6.88;1.30;;;18.90;96.50;;;;;;4972406;28;20252;-87
2022/08/24 00:09:18;;;;;;;5.50;1.60;;;18.90;96.70;;;;;;4972407;28;20200;-87
2022/08/24 00:11:44;;;;;;;3.58;1.38;;;18.80;96.60;;;;;;4972750;28;20696;-88
2022/08/24 00:14:12;;;;;;;4.60;1.38;;;18.90;96.70;;;;;;4974521;28;20180;-88
2022/08/24 00:16:38;;;;;;;3.28;1.42;;;18.80;97.00;;;;;;4992231;28;20208;-88
2022/08/24 00:19:04;;;;;;;2.67;1.40;;;18.80;97.20;;;;;;4991509;28;20218;-87
2022/08/24 00:21:30;;;;;;;3.85;1.40;;;18.70;97.40;;;;;;4991856;28;20172;-88
2022/08/24 00:23:56;;;;;;;3.22;1.45;;;18.60;97.70;;;;;;4991194;28;20571;-88
2022/08/24 00:26:21;;;;;;;3.50;1.45;;;18.50;97.90;;;;;;4991860;28;20187;-88
2022/08/24 00:28:48;;;;;;;3.30;1.67;;;18.50;97.80;;;;;;4993027;28;20236;-88
2022/08/24 00:31:14;;;;;;;4.65;1.70;;;18.50;98.00;;;;;;4991462;28;20687;-88
2022/08/24 00:33:40;;;;;;;3.53;1.52;;;18.40;98.00;;;;;;4975816;28;20185;-88
2022/08/24 00:36:07;;;;;;;4.97;1.58;;;18.40;98.20;;;;;;4972479;28;20196;-88
2022/08/24 00:38:34;;;;;;;6.15;1.58;;;18.30;98.30;;;;;;4972071;28;20169;-87
2022/08/24 00:41:02;;;;;;;5.60;1.45;;;18.30;98.30;;;;;;4971962;28;20204;-88
2022/08/24 00:43:28;;;;;;;6.15;1.50;;;18.30;98.70;;;;;;4984173;28;20215;-88
2022/08/24 00:46:15;;;;;;;6.85;2.20;;;18.30;98.70;;;;;;4991222;28;20186;-88
2022/08/24 00:48:46;;;;;;;1.85;1.25;;;18.20;98.60;;;;;;4973110;28;20220;-88
2022/08/24 00:51:28;;;;;;;5.32;1.70;;;18.10;98.60;;;;;;4972261;28;20295;-89
2022/08/24 00:54:05;;;;;;;2.22;1.60;;;18.10;98.60;;;;;;4984209;28;20623;-88
2022/08/24 00:56:36;;;;;;;4.65;1.73;;;18.10;98.50;;;;;;4992164;28;20200;-88
2022/08/24 00:59:07;;;;;;;5.03;1.50;;;18.20;98.80;;;;;;4978159;28;20183;-87
2022/08/24 01:01:34;;;;;;;5.20;2.13;;;18.10;99.10;;;;;;4991168;28;20172;-88
2022/08/24 01:04:01;;;;;;;5.13;1.52;;;18.10;98.60;;;;;;4990898;28;20199;-87
2022/08/24 01:06:27;;;;;;;3.10;1.33;;;18.10;98.70;;;;;;4990796;28;20232;-87
2022/08/24 01:08:53;;;;;;;2.63;1.63;;;18.10;99.00;;;;;;4996085;28;20632;-88
2022/08/24 01:13:56;;;;;;;3.95;1.70;;;18.10;99.10;;;;;;5394802;23;20640;-87
2022/08/24 01:19:32;;;;;;;5.75;1.67;;;18.00;99.50;;;;;;4979421;28;20840;-87
2022/08/24 01:22:31;;;;;;;5.75;1.70;;;17.90;99.10;;;;;;4961709;28;20169;-87
2022/08/24 01:24:57;;;;;;;3.15;1.73;;;17.90;99.10;;;;;;4977127;28;20168;-88
2022/08/24 01:27:23;;;;;;;4.63;1.60;;;17.90;99.20;;;;;;4981711;28;20682;-88
2022/08/24 01:29:49;;;;;;;4.53;1.85;;;17.90;99.50;;;;;;4998770;28;20191;-88
2022/08/24 01:32:17;;;;;;;3.67;1.77;;;17.80;99.30;;;;;;4981287;28;20697;-87
2022/08/24 01:34:46;;;;;;;2.95;1.70;;;17.80;99.20;;;;;;4980865;28;20203;-88
2022/08/24 01:37:12;;;;;;;3.85;1.38;;;17.70;99.40;;;;;;4981030;28;20612;-88
2022/08/24 01:39:47;;;;;;;4.97;1.88;;;17.70;99.40;;;;;;4980642;28;20261;-88
2022/08/24 01:42:13;;;;;;;3.47;1.58;;;17.70;99.40;;;;;;4981165;28;20201;-87
2022/08/24 01:44:41;;;;;;;3.80;1.95;;;17.60;99.30;;;;;;4963533;28;20185;-87
2022/08/24 01:47:10;;;;;;;3.25;2.08;;;17.70;99.60;;;;;;4961728;28;20539;-87
2022/08/24 01:49:43;;;;;;;4.55;1.63;;;17.70;99.80;;;;;;4978898;28;20235;-87
2022/08/24 01:52:17;;;;;;;4.03;1.70;;;17.60;99.90;;;;;;4961460;28;20165;-87
2022/08/24 01:54:43;;;;;;;4.35;1.83;;;17.50;99.90;;;;;;4961823;28;20235;-87
2022/08/24 01:57:09;;;;;;;5.13;1.85;;;17.50;99.90;;;;;;4966194;28;20183;-88
2022/08/24 01:59:36;;;;;;;3.13;1.83;;;17.50;99.90;;;;;;4980728;28;20204;-88
2022/08/24 02:02:18;;;;;;;5.13;1.77;;;17.40;99.90;;;;;;4980764;28;20191;-87
2022/08/24 02:04:44;;;;;;;3.83;2.08;;;17.40;99.90;;;;;;4980715;28;20206;-88
2022/08/24 02:07:12;;;;;;;4.28;1.70;;;17.30;99.90;;;;;;4980951;28;20211;-88
2022/08/24 02:09:38;;;;;;;5.75;1.83;;;17.30;99.90;;;;;;4977056;28;20216;-87
2022/08/24 02:12:05;;;;;;;5.93;1.83;;;17.30;99.90;;;;;;4981051;28;20175;-88
2022/08/24 02:14:31;;;;;;;5.78;2.35;;;17.30;99.90;;;;;;4977143;28;20691;-87
2022/08/24 02:16:57;;;;;;;3.78;1.58;;;17.30;99.90;;;;;;4977402;28;20199;-88
2022/08/24 02:19:24;;;;;;;5.90;1.92;;;17.30;99.90;;;;;;4976369;28;20287;-88
2022/08/24 02:21:50;;;;;;;4.47;2.28;;;17.40;99.90;;;;;;4974232;28;20173;-88
2022/08/24 02:24:17;;;;;;;4.18;1.80;;;17.40;99.90;;;;;;4974244;28;20215;-89
2022/08/24 02:26:42;;;;;;;3.05;2.00;;;17.40;99.90;;;;;;4974470;28;20235;-87
2022/08/24 02:29:08;;;;;;;3.47;1.77;;;17.50;99.90;;;;;;4974032;28;20200;-88
2022/08/24 02:31:35;;;;;;;2.90;1.63;;;17.50;99.90;;;;;;4975424;28;20168;-88
2022/08/24 02:34:01;;;;;;;3.35;1.70;;;17.50;99.90;;;;;;4974489;28;20185;-88
2022/08/24 02:36:27;;;;;;;4.57;1.73;;;17.60;99.90;;;;;;4975988;28;20497;-87
2022/08/24 02:38:54;;;;;;;4.53;1.65;;;17.50;99.90;;;;;;4975304;28;20629;-87
2022/08/24 02:41:23;;;;;;;12.77;2.25;;;17.60;99.90;;;;;;4973904;28;20208;-87
2022/08/24 02:43:50;;;;;;;6.00;1.70;;;17.60;99.90;;;;;;4973186;28;20208;-88
2022/08/24 02:46:22;;;;;;;5.72;2.10;;;17.60;99.90;;;;;;4973915;28;20691;-88
2022/08/24 02:48:49;;;;;;;6.88;1.90;;;17.60;99.90;;;;;;4975246;28;20510;-88
2022/08/24 02:51:24;;;;;;;3.30;1.60;;;17.60;99.90;;;;;;4974118;28;20192;-87
2022/08/24 02:53:50;;;;;;;5.90;1.85;;;17.60;99.90;;;;;;4973908;28;20640;-87
2022/08/24 02:56:16;;;;;;;2.63;1.58;;;17.60;99.90;;;;;;4975088;28;20175;-88
2022/08/24 02:58:46;;;;;;;4.20;1.70;;;17.60;99.90;;;;;;4973229;28;20527;-87
2022/08/24 03:01:13;;;;;;;3.45;1.75;;;17.60;99.90;;;;;;4974030;28;20692;-87
2022/08/24 03:03:39;;;;;;;6.25;2.20;;;17.60;99.90;;;;;;4973693;28;20204;-88
2022/08/24 03:06:06;;;;;;;5.38;1.90;;;17.50;99.90;;;;;;4974079;28;20169;-87
2022/08/24 03:08:33;;;;;;;4.20;1.80;;;17.50;99.90;;;;;;4974035;28;20172;-87
2022/08/24 03:10:59;;;;;;;3.72;1.90;;;17.40;99.90;;;;;;4973230;28;20212;-87
2022/08/24 03:13:30;;;;;;;3.55;1.70;;;17.40;99.90;;;;;;4972987;28;20283;-88
2022/08/24 03:15:57;;;;;;;3.80;1.95;;;17.40;99.90;;;;;;4973446;28;20562;-88
2022/08/24 03:18:25;;;;;;;4.07;1.77;;;17.30;99.90;;;;;;4973500;28;20180;-88
2022/08/24 03:20:56;;;;;;;5.40;1.90;;;17.20;99.90;;;;;;4973521;28;20208;-88
2022/08/24 03:23:23;;;;;;;5.30;1.95;;;17.20;99.90;;;;;;4973131;28;20322;-87
2022/08/24 03:25:50;;;;;;;4.82;1.88;;;17.20;99.90;;;;;;4973472;28;20168;-88
2022/08/24 03:28:17;;;;;;;5.80;1.90;;;17.10;99.90;;;;;;4973416;28;20164;-88
2022/08/24 03:30:43;;;;;;;6.18;1.60;;;17.20;99.90;;;;;;4973064;28;20624;-88
2022/08/24 03:33:09;;;;;;;6.13;1.90;;;17.20;99.90;;;;;;4972936;28;20276;-88
2022/08/24 03:35:35;;;;;;;4.80;2.30;;;17.20;99.90;;;;;;4972980;28;20718;-88
2022/08/24 03:38:00;;;;;;;4.70;2.33;;;17.20;99.90;;;;;;4973190;28;20207;-87
2022/08/24 03:40:27;;;;;;;2.75;2.13;;;17.20;99.90;;;;;;4974243;28;20192;-87
2022/08/24 03:42:54;;;;;;;10.32;2.30;;;17.10;99.90;;;;;;4973253;28;20211;-87
2022/08/24 03:45:20;;;;;;;7.15;2.05;;;17.10;99.90;;;;;;4972301;28;20275;-87
2022/08/24 03:47:46;;;;;;;3.78;2.08;;;17.10;99.90;;;;;;4972734;28;20172;-88
2022/08/24 03:50:12;;;;;;;5.32;2.20;;;17.10;99.90;;;;;;4972620;28;20214;-87
2022/08/24 03:52:38;;;;;;;4.13;2.22;;;17.10;99.90;;;;;;4974067;28;20176;-88
2022/08/24 03:55:06;;;;;;;4.00;2.00;;;17.00;99.90;;;;;;4974066;28;20621;-88
2022/08/24 03:57:31;;;;;;;5.00;2.22;;;17.00;99.90;;;;;;4957610;28;20303;-88
2022/08/24 03:59:57;;;;;;;4.47;1.95;;;17.00;99.90;;;;;;4953411;29;20287;-88
2022/08/24 04:02:23;;;;;;;6.85;2.28;;;17.00;99.90;;;;;;4953571;29;20661;-87
2022/08/24 04:04:50;;;;;;;4.57;2.00;;;17.00;99.90;;;;;;4953269;28;20176;-87
2022/08/24 04:07:15;;;;;;;5.85;2.42;;;16.90;99.90;;;;;;4953406;29;20188;-87
2022/08/24 04:09:41;;;;;;;2.83;2.15;;;17.00;99.90;;;;;;4953182;29;20249;-87
2022/08/24 04:12:07;;;;;;;5.70;2.30;;;16.90;99.90;;;;;;4953138;29;20283;-87
2022/08/24 04:14:34;;;;;;;5.07;2.22;;;16.90;99.90;;;;;;4969514;28;20740;-88
2022/08/24 04:17:00;;;;;;;11.32;2.40;;;16.90;99.90;;;;;;4972673;28;20195;-88
2022/08/24 04:19:27;;;;;;;6.15;2.30;;;16.80;99.90;;;;;;4972754;28;20711;-87
2022/08/24 04:21:56;;;;;;;7.78;1.92;;;16.80;99.90;;;;;;4972884;28;20173;-88
2022/08/24 04:24:22;;;;;;;5.10;2.00;;;16.90;99.90;;;;;;4972650;28;20184;-87
2022/08/24 04:26:49;;;;;;;7.82;2.35;;;16.80;99.90;;;;;;4970219;28;20164;-88
2022/08/24 04:29:19;;;;;;;9.32;2.30;;;16.80;99.90;;;;;;4954892;28;20212;-88
2022/08/24 04:31:46;;;;;;;7.53;2.38;;;16.70;99.90;;;;;;4953470;29;20312;-86
2022/08/24 04:34:14;;;;;;;5.38;2.60;;;16.70;99.90;;;;;;4953602;29;20177;-87
2022/08/24 04:36:42;;;;;;;5.25;2.28;;;16.70;99.90;;;;;;4952571;29;20178;-87
2022/08/24 04:39:08;;;;;;;6.15;2.53;;;16.70;99.90;;;;;;4960316;28;20553;-88
2022/08/24 04:41:34;;;;;;;3.63;2.20;;;16.70;99.90;;;;;;4952747;28;20184;-87
2022/08/24 04:44:01;;;;;;;8.18;2.40;;;16.70;99.90;;;;;;4952406;28;20241;-88
2022/08/24 04:46:27;;;;;;;6.97;2.55;;;16.70;99.90;;;;;;4952597;29;20181;-88
2022/08/24 04:48:53;;;;;;;2.90;2.03;;;16.70;99.90;;;;;;4952593;29;20720;-87
2022/08/24 04:51:19;;;;;;;3.13;2.10;;;16.70;99.90;;;;;;4952433;28;20211;-87
2022/08/24 04:53:46;;;;;;;4.05;2.10;;;16.70;99.90;;;;;;4956528;28;20187;-88
2022/08/24 04:56:17;;;;;;;5.05;2.25;;;16.70;99.90;;;;;;4971852;28;20176;-88
2022/08/24 04:58:45;;;;;;;3.80;2.13;;;16.80;99.90;;;;;;4972184;28;20169;-88
2022/08/24 05:01:20;;;;;;;4.13;2.03;;;16.80;99.90;;;;;;4972270;28;20200;-88
2022/08/24 05:03:48;;;;;;;4.40;2.35;;;16.80;99.90;;;;;;4972138;28;20207;-88
2022/08/24 05:06:15;;;;;;;3.45;2.30;;;16.80;99.90;;;;;;4972021;28;20169;-87
2022/08/24 05:08:42;;;;;;;6.03;2.30;;;16.80;99.90;;;;;;4971487;28;20172;-88
2022/08/24 05:11:08;;;;;;;3.05;2.30;;;16.80;99.90;;;;;;4972838;28;20251;-88
2022/08/24 05:13:35;;;;;;;3.03;2.17;;;16.90;99.90;;;;;;4962974;28;20264;-87
2022/08/24 05:16:05;;;;;;;2.92;2.25;;;16.90;99.90;;;;;;4952718;29;20630;-87
2022/08/24 05:18:32;;;;;;;4.00;2.30;;;16.90;99.90;;;;;;4952937;29;20629;-88
2022/08/24 05:20:58;;;;;;;5.10;2.60;;;17.00;99.90;;;;;;4952381;29;20216;-89
2022/08/24 05:23:25;;;;;;;5.03;2.38;;;17.00;99.90;;;;;;4953894;28;20348;-88
2022/08/24 05:25:52;;;;;;;6.50;2.58;;;17.00;99.90;;;;;;4952385;29;20189;-88
2022/08/24 05:28:19;;;;;;;3.85;2.65;;;17.00;99.90;;;;;;4966105;28;20196;-88
2022/08/24 05:30:45;;;;;;;5.97;3.03;;;17.00;99.90;;;;;;4971158;28;20540;-88
2022/08/24 05:33:11;;;;;;;5.35;2.80;;;17.00;99.90;;;;;;4966073;28;20174;-87
2022/08/24 05:35:40;;;;;;;5.57;2.40;;;17.00;99.90;;;;;;4955343;28;20705;-87
2022/08/24 05:38:08;;;;;;;5.90;2.53;;;17.10;99.90;;;;;;4971316;28;20252;-87
2022/08/24 05:40:36;;;;;;;6.82;2.63;;;17.10;99.90;;;;;;4971323;28;20207;-88
2022/08/24 05:43:02;;;;;;;8.82;2.70;;;17.20;99.90;;;;;;4967297;28;20211;-89
2022/08/24 05:45:28;;;;;;;7.93;2.92;;;17.20;99.90;;;;;;4962035;28;20608;-89
2022/08/24 05:47:54;;;;;;;3.65;2.53;;;17.30;99.90;;;;;;4972116;28;20256;-88
2022/08/24 05:50:20;;;;;;;3.85;2.70;;;17.30;99.90;;;;;;4971457;28;20196;-87
2022/08/24 05:52:45;;;;;;;6.22;2.60;;;17.40;99.90;;;;;;4969393;28;20661;-88
2022/08/24 05:55:11;;;;;;;8.35;2.50;;;17.40;99.90;;;;;;4955910;28;20268;-88
2022/08/24 05:57:37;;;;;;;5.13;3.03;;;17.40;99.90;;;;;;4955757;29;20177;-89
2022/08/24 06:00:09;;;;;;;6.18;2.78;;;17.50;99.90;;;;;;4957650;28;20220;-88
2022/08/24 06:02:35;;;;;;;6.57;2.67;;;17.60;99.90;;;;;;4972751;28;20208;-87
2022/08/24 06:05:00;;;;;;;7.82;2.75;;;17.60;99.90;;;;;;4961439;28;20181;-87
2022/08/24 06:07:26;;;;;;;6.03;2.90;;;17.70;99.90;;;;;;4959893;28;20188;-89
2022/08/24 06:09:53;;;;;;;7.47;2.67;;;17.80;99.90;;;;;;4974797;28;20207;-87
2022/08/24 06:12:19;;;;;;;5.32;3.00;;;17.90;99.90;;;;;;4956569;28;20177;-88
2022/08/24 06:14:46;;;;;;;5.78;2.85;;;18.00;99.90;;;;;;4972860;28;20229;-88
2022/08/24 06:17:12;;;;;;;3.58;2.22;;;18.10;99.90;;;;;;4971873;28;20216;-88
2022/08/24 06:19:38;;;;;;;7.22;2.95;;;18.20;99.90;;;;;;4956395;28;20243;-88
2022/08/24 06:22:04;;;;;;;5.28;3.28;;;18.20;99.90;;;;;;4955238;28;20185;-88
2022/08/24 06:27:22;;;;;;;10.07;3.00;;;18.40;99.90;;;;;;4975463;28;20267;-88
2022/08/24 06:30:04;;;;;;;6.97;3.15;;;18.60;99.90;;;;;;4955905;28;20231;-88
2022/08/24 06:32:30;;;;;;;4.22;2.50;;;18.70;99.90;;;;;;4956307;28;20177;-89
2022/08/24 06:34:57;;;;;;;7.75;2.90;;;18.90;99.90;;;;;;4954980;28;20597;-88
2022/08/24 06:37:25;;;;;;;8.15;2.97;;;19.10;99.90;;;;;;4966157;28;20660;-88
2022/08/24 06:39:55;;;;;;;5.55;2.55;;;19.20;99.90;;;;;;4974357;28;20755;-88
2022/08/24 06:42:23;;;;;;;5.78;2.70;;;19.30;99.90;;;;;;4974391;28;20177;-88
2022/08/24 06:44:51;;;;;;;8.85;3.10;;;19.40;99.90;;;;;;4974059;28;20184;-88
2022/08/24 06:47:21;;;;;;;6.15;2.92;;;19.50;99.90;;;;;;4973958;28;20197;-89
2022/08/24 06:49:46;;;;;;;7.22;2.90;;;19.70;99.90;;;;;;4973892;28;20291;-89
2022/08/24 06:52:13;;;;;;;5.43;2.53;;;19.80;99.90;;;;;;4974885;28;20248;-89
2022/08/24 06:54:39;;;;;;;6.20;2.60;;;19.90;99.90;;;;;;4973597;28;20177;-89
2022/08/24 06:57:05;;;;;;;9.85;2.63;;;20.00;99.90;;;;;;4974053;28;20216;-90
2022/08/24 06:59:32;;;;;;;9.25;3.03;;;20.00;99.90;;;;;;4965196;28;20205;-89
2022/08/24 07:01:58;;;;;;;4.88;3.10;;;20.10;99.90;;;;;;4956155;29;20158;-89
2022/08/24 07:04:26;;;;;;;13.75;2.70;;;20.20;99.90;;;;;;4954367;28;20625;-90
2022/08/24 07:06:53;;;;;;;10.93;3.17;;;20.30;99.90;;;;;;4953822;28;20244;-89
2022/08/24 07:09:19;;;;;;;6.80;2.88;;;20.40;99.90;;;;;;4965483;28;20231;-90
2022/08/24 07:11:47;;;;;;;6.30;2.38;;;20.50;99.90;;;;;;4973465;28;20243;-89
2022/08/24 07:14:13;;;;;;;8.95;2.80;;;20.60;99.90;;;;;;4988195;28;20219;-89
2022/08/24 07:16:39;;;;;;;11.57;3.05;;;20.80;99.90;;;;;;4976912;28;20176;-89
2022/08/24 07:19:05;;;;;;;5.07;2.78;;;20.90;99.90;;;;;;4993950;28;20179;-89
2022/08/24 07:21:31;;;;;;;4.53;2.67;;;21.00;99.90;;;;;;4977037;28;20538;-89
2022/08/24 07:23:59;;;;;;;7.80;2.80;;;21.10;99.90;;;;;;4994024;28;20207;-89
2022/08/24 07:26:27;;;;;;;4.07;2.50;;;21.30;99.90;;;;;;4976344;28;20190;-89
2022/08/24 07:28:59;;;;;;;4.63;2.35;;;21.40;99.80;;;;;;4976295;28;20168;-89
2022/08/24 07:31:26;;;;;;;3.47;2.45;;;21.60;99.30;;;;;;4975859;28;20204;-89
2022/08/24 07:33:52;;;;;;;8.10;2.20;;;21.80;99.20;;;;;;4976383;28;20176;-89
2022/08/24 07:36:18;;;;;;;4.95;2.78;;;21.90;99.00;;;;;;4993939;28;20175;-89
2022/08/24 07:38:45;;;;;;;4.43;2.42;;;22.10;98.80;;;;;;4976783;28;20187;-90
2022/08/24 07:41:13;;;;;;;8.23;2.75;;;22.20;98.40;;;;;;4976233;28;20227;-89
2022/08/24 07:43:40;;;;;;;4.45;2.63;;;22.40;98.30;;;;;;4976239;28;20714;-89
2022/08/24 07:46:06;;;;;;;5.43;2.72;;;22.50;97.60;;;;;;4993190;28;20172;-89
2022/08/24 07:48:38;;;;;;;5.05;2.72;;;22.60;97.50;;;;;;4975853;28;20218;-88
2022/08/24 07:51:09;;;;;;;6.05;2.85;;;22.80;97.30;;;;;;4975065;28;20277;-89
2022/08/24 07:53:35;;;;;;;6.45;2.60;;;22.90;97.00;;;;;;4975646;28;20180;-88
2022/08/24 07:56:01;;;;;;;4.25;2.58;;;23.00;96.80;;;;;;4973381;28;20195;-88
2022/08/24 07:58:27;;;;;;;5.00;2.40;;;23.10;97.00;;;;;;4976018;28;20243;-89
2022/08/24 08:00:53;;;;;;;6.97;2.83;;;23.30;97.00;;;;;;4972093;28;20657;-89
2022/08/24 08:03:20;;;;;;;4.05;2.42;;;23.40;96.10;;;;;;4961745;28;20213;-89
2022/08/24 08:05:48;;;;;;;4.88;2.40;;;23.50;96.50;;;;;;4956045;28;20264;-89
2022/08/24 08:08:14;;;;;;;3.78;2.20;;;23.60;96.00;;;;;;4956156;28;20260;-89
2022/08/24 08:10:40;;;;;;;6.00;2.63;;;23.70;95.90;;;;;;4973739;28;20231;-89
2022/08/24 08:13:07;;;;;;;3.95;2.45;;;23.80;95.40;;;;;;4952350;28;20233;-88
2022/08/24 08:15:33;;;;;;;5.60;2.38;;;23.90;95.90;;;;;;4954372;28;20176;-89
2022/08/24 08:17:59;;;;;;;3.65;2.45;;;24.00;95.50;;;;;;4953283;28;20162;-89
2022/08/24 08:20:28;;;;;;;4.30;2.50;;;24.10;95.10;;;;;;4952813;29;20264;-89
2022/08/24 08:25:40;;;;;;;6.95;2.35;;;24.20;94.70;;;;;;4953939;29;20189;-89
2022/08/24 08:28:06;;;;;;;4.22;2.25;;;24.40;94.60;;;;;;4952878;29;20178;-88
2022/08/24 08:30:32;;;;;;;3.75;2.10;;;24.50;94.00;;;;;;4952669;29;21012;-89
2022/08/24 08:32:58;;;;;;;3.88;1.98;;;24.60;93.50;;;;;;4954096;28;20201;-89
2022/08/24 08:35:25;;;;;;;2.92;2.00;;;24.70;93.40;;;;;;4941337;29;20186;-89
2022/08/24 08:37:51;;;;;;;3.08;1.90;;;24.80;92.50;;;;;;4933000;29;20273;-89
2022/08/24 08:40:37;;;;;;;3.63;1.90;;;24.80;93.30;;;;;;4932788;29;20301;-89
2022/08/24 08:43:14;;;;;;;2.17;1.55;;;24.90;92.50;;;;;;4932000;29;20297;-88
2022/08/24 08:46:21;;;;;;;2.03;1.30;;;25.00;91.60;;;;;;4934070;29;20213;-89
2022/08/24 08:48:56;;;;;;;4.55;1.65;;;25.00;90.40;;;;;;4944423;29;20166;-89
2022/08/24 08:51:30;;;;;;;3.67;1.88;;;25.10;90.90;;;;;;4941347;29;20258;-89
2022/08/24 08:54:11;;;;;;;2.20;1.60;;;25.20;91.30;;;;;;4952329;29;20195;-89
2022/08/24 08:57:06;;;;;;;6.97;2.03;;;25.20;91.00;;;;;;4952849;29;20177;-90
2022/08/24 08:59:47;;;;;;;2.40;1.52;;;25.30;91.40;;;;;;4952045;29;20207;-89
2022/08/24 09:02:38;;;;;;;4.13;1.90;;;25.40;90.90;;;;;;4952796;29;20193;-88
2022/08/24 09:05:26;;;;;;;3.67;2.25;;;25.50;91.50;;;;;;4951616;28;20204;-89
2022/08/24 09:07:55;;;;;;;4.95;1.95;;;25.50;91.20;;;;;;4951563;29;20212;-89
2022/08/24 09:10:34;;;;;;;5.07;2.28;;;25.70;91.40;;;;;;4952067;29;20212;-87
2022/08/24 09:13:17;;;;;;;4.63;2.20;;;25.70;91.60;;;;;;4955902;28;20224;-86
2022/08/24 09:16:30;;;;;;;3.75;1.90;;;25.80;90.70;;;;;;4971287;28;20660;-88
2022/08/24 09:19:30;;;;;;;4.97;2.38;;;25.80;90.30;;;;;;4915770;29;20182;-88
2022/08/24 09:22:14;;;;;;;4.68;2.20;;;25.90;90.90;;;;;;4921934;29;20182;-90
2022/08/24 09:24:46;;;;;;;4.25;1.92;;;26.00;90.60;;;;;;4960401;28;20204;-87
2022/08/24 09:27:34;;;;;;;7.63;2.17;;;26.00;90.90;;;;;;4965483;28;20206;-88
2022/08/24 09:30:23;;;;;;;7.05;2.00;;;26.10;90.90;;;;;;4954669;28;20194;-88
2022/08/24 09:33:21;;;;;;;6.00;2.13;;;26.20;90.30;;;;;;4956179;28;20172;-89
2022/08/24 09:35:50;;;;;;;2.10;1.80;;;26.40;90.70;;;;;;4956620;28;20181;-88
2022/08/24 09:38:34;;;;;;;6.10;2.38;;;26.50;90.70;;;;;;4955867;28;20177;-89
2022/08/24 09:41:21;;;;;;;3.85;2.00;;;26.50;90.20;;;;;;4955441;28;20661;-88
2022/08/24 09:44:28;;;;;;;5.40;2.20;;;26.60;90.50;;;;;;4973610;28;20679;-89
2022/08/24 09:47:33;;;;;;;5.32;2.15;;;26.70;90.40;;;;;;4974493;28;20267;-88
2022/08/24 09:51:01;;;;;;;4.30;2.00;;;26.80;90.00;;;;;;4976462;28;20200;-88
2022/08/24 09:53:39;;;;;;;4.20;1.80;;;26.80;89.50;;;;;;4957085;28;20587;-88
2022/08/24 09:56:18;;;;;;;5.45;2.22;;;26.90;89.20;;;;;;4972479;28;20731;-88
2022/08/24 09:58:56;;;;;;;3.53;1.70;;;27.00;88.10;;;;;;4975022;28;20176;-88
2022/08/24 10:01:47;;;;;;;5.95;1.98;;;27.00;89.30;;;;;;4974630;28;20204;-88
2022/08/24 10:04:49;;;;;;;5.57;1.83;;;27.10;88.50;;;;;;4974721;28;20212;-89
2022/08/24 10:07:43;;;;;;;3.17;1.73;;;27.30;89.10;;;;;;4975284;28;20223;-88
2022/08/24 10:10:22;;;;;;;3.10;1.60;;;27.40;87.60;;;;;;4975857;28;20204;-89
2022/08/24 10:13:17;;;;;;;2.85;1.65;;;27.50;87.00;;;;;;4977302;28;20180;-89
2022/08/24 10:16:08;;;;;;;4.22;1.67;;;27.60;86.60;;;;;;4955248;28;20188;-89
2022/08/24 10:18:54;;;;;;;4.72;1.60;;;27.60;84.90;;;;;;4968278;28;20263;-88
2022/08/24 10:21:50;;;;;;;5.13;1.50;;;27.60;85.20;;;;;;4989266;28;20694;-89
2022/08/24 10:24:43;;;;;;;3.08;1.70;;;27.70;85.50;;;;;;4958376;28;20264;-88
2022/08/24 10:27:20;;;;;;;2.78;1.55;;;27.80;84.50;;;;;;4958748;28;20215;-88
2022/08/24 10:30:08;;;;;;;2.47;1.50;;;27.90;83.00;;;;;;4977062;28;20215;-90
2022/08/24 10:33:06;;;;;;;3.63;1.50;;;28.00;82.60;;;;;;4977105;28;20187;-89
2022/08/24 10:35:57;;;;;;;3.30;1.40;;;27.90;83.00;;;;;;4977681;28;20168;-89
2022/08/24 10:42:01;;;;;;;4.78;1.70;;;27.90;83.30;;;;;;4973715;28;20330;-89
2022/08/24 10:44:42;;;;;;;3.45;1.67;;;28.10;82.00;;;;;;4977048;28;20206;-89
2022/08/24 10:47:22;;;;;;;2.55;1.30;;;28.10;81.10;;;;;;4976426;28;20266;-89
2022/08/24 10:49:58;;;;;;;3.22;1.90;;;28.30;81.70;;;;;;4976864;28;20219;-89
2022/08/24 10:52:36;;;;;;;2.85;1.63;;;28.40;80.70;;;;;;4976473;28;20183;-88
2022/08/24 10:55:33;;;;;;;2.83;1.30;;;28.40;80.40;;;;;;4977155;28;20533;-88
2022/08/24 10:58:17;;;;;;;2.47;1.50;;;28.30;80.80;;;;;;4952169;28;20237;-89
2022/08/24 11:00:45;;;;;;;2.33;1.50;;;28.50;80.20;;;;;;4973150;28;20675;-89
2022/08/24 11:03:21;;;;;;;2.75;1.50;;;28.50;80.30;;;;;;4994403;28;20196;-89
2022/08/24 11:05:50;;;;;;;3.45;1.20;;;28.50;80.80;;;;;;4994342;28;20152;-88
2022/08/24 11:08:24;;;;;;;2.03;1.60;;;28.50;80.60;;;;;;4976595;28;20580;-88
2022/08/24 11:11:06;;;;;;;2.88;1.40;;;28.60;79.90;;;;;;4970508;28;20266;-89
2022/08/24 11:13:34;;;;;;;5.35;1.58;;;28.50;78.90;;;;;;4957581;28;20386;-89
2022/08/24 11:16:02;;;;;;;3.53;1.40;;;28.60;78.50;;;;;;4957118;28;20275;-88
2022/08/24 11:18:54;;;;;;;3.65;1.60;;;28.70;79.70;;;;;;4957538;28;20319;-89
2022/08/24 11:21:48;;;;;;;4.72;1.70;;;28.80;79.20;;;;;;4956999;28;20664;-89
2022/08/24 11:24:16;;;;;;;5.55;1.50;;;28.70;78.50;;;;;;4966252;28;20207;-88
2022/08/24 11:26:54;;;;;;;4.28;1.60;;;28.80;78.70;;;;;;4963898;28;20207;-89
2022/08/24 11:29:22;;;;;;;5.82;1.48;;;28.80;78.10;;;;;;4963268;28;20182;-89
2022/08/24 11:31:51;;;;;;;2.65;1.25;;;28.90;77.40;;;;;;4976969;28;20167;-89
2022/08/24 11:34:30;;;;;;;1.77;1.30;;;29.00;77.10;;;;;;4976725;28;20203;-88
2022/08/24 11:36:57;;;;;;;2.33;1.38;;;29.10;78.20;;;;;;4977230;28;20179;-90
2022/08/24 11:39:30;;;;;;;4.75;1.27;;;29.20;76.40;;;;;;4976595;28;20164;-89
2022/08/24 11:42:11;;;;;;;2.78;1.30;;;29.20;76.10;;;;;;4976689;28;20203;-89
2022/08/24 11:44:54;;;;;;;2.53;1.20;;;29.30;75.20;;;;;;4959574;28;20611;-89
2022/08/24 11:47:23;;;;;;;4.10;1.38;;;29.40;74.10;;;;;;4951783;28;20184;-90
2022/08/24 11:49:55;;;;;;;4.63;1.35;;;29.40;72.50;;;;;;4956561;28;20279;-89
2022/08/24 11:53:03;;;;;;;3.20;1.15;;;29.40;73.60;;;;;;4973564;28;20188;-88
2022/08/24 11:55:33;;;;;;;2.25;1.35;;;29.40;73.20;;;;;;4953590;28;20183;-88
2022/08/24 11:58:18;;;;;;;2.40;1.40;;;29.40;71.40;;;;;;4975771;28;20175;-89
2022/08/24 12:00:56;;;;;;;2.72;1.10;;;29.30;73.10;;;;;;4976130;28;20195;-89
2022/08/24 12:03:46;;;;;;;2.45;1.42;;;29.40;71.70;;;;;;4975996;28;20199;-88
2022/08/24 12:06:26;;;;;;;2.58;1.27;;;29.40;70.60;;;;;;4976139;28;20168;-90
2022/08/24 12:09:14;;;;;;;3.20;1.30;;;29.40;71.30;;;;;;4975825;28;20163;-89
2022/08/24 12:11:49;;;;;;;5.32;1.48;;;29.40;72.40;;;;;;4973300;28;20176;-89
2022/08/24 12:14:46;;;;;;;9.82;2.17;;;29.50;73.10;;;;;;4972311;28;20223;-89
2022/08/24 12:17:25;;;;;;;4.70;1.52;;;29.70;73.10;;;;;;4972282;28;20169;-89
2022/08/24 12:20:04;;;;;;;2.58;1.48;;;29.60;73.90;;;;;;4956457;28;20204;-90
2022/08/24 12:22:31;;;;;;;4.45;1.52;;;29.60;73.80;;;;;;4956129;28;20175;-91
2022/08/24 12:26:00;;;;;;;2.20;1.30;;;29.60;73.40;;;;;;4973359;28;20188;-89
2022/08/24 12:27:53;;;;;;;2.17;1.60;;;29.70;73.10;;;;;;4984405;28;20540;-88
2022/08/24 12:30:19;;;;;;;3.70;1.50;;;29.70;73.30;;;;;;4967848;28;20199;-88
2022/08/24 12:32:52;;;;;;;3.22;1.45;;;29.70;73.70;;;;;;4974916;28;20262;-88
2022/08/24 12:35:39;;;;;;;3.28;1.35;;;29.80;73.70;;;;;;4964097;28;20175;-89
2022/08/24 12:38:08;;;;;;;3.00;1.58;;;29.90;73.90;;;;;;4961283;28;20199;-89
2022/08/24 12:40:41;;;;;;;1.50;1.40;;;30.00;73.90;;;;;;4975556;28;20199;-88
2022/08/24 12:43:13;;;;;;;2.75;1.48;;;30.10;73.60;;;;;;4974833;28;20295;-88
2022/08/24 12:45:39;;;;;;;4.28;2.00;;;30.30;72.70;;;;;;4975378;28;20221;-89
2022/08/24 12:48:23;;;;;;;3.67;1.58;;;30.30;72.80;;;;;;4975327;28;20519;-90
2022/08/24 12:50:55;;;;;;;5.00;1.50;;;30.40;72.50;;;;;;4961987;28;20202;-89
2022/08/24 12:53:56;;;;;;;2.92;1.30;;;30.50;71.10;;;;;;4975219;28;20551;-89
2022/08/24 12:56:46;;;;;;;3.85;2.03;;;30.40;71.80;;;;;;4945320;28;20717;-89
2022/08/24 12:59:16;;;;;;;2.65;1.40;;;30.50;72.30;;;;;;4974855;28;20194;-89
2022/08/24 13:02:06;;;;;;;2.78;1.38;;;30.60;72.50;;;;;;4974571;28;20179;-88
2022/08/24 13:04:56;;;;;;;5.38;1.67;;;30.60;73.30;;;;;;4974660;28;20211;-88
2022/08/24 13:07:30;;;;;;;2.20;1.42;;;30.70;71.70;;;;;;4992388;28;20182;-88
2022/08/24 13:09:58;;;;;;;2.33;1.50;;;30.80;70.90;;;;;;4975029;28;20309;-89
2022/08/24 13:12:42;;;;;;;4.80;1.80;;;30.70;70.10;;;;;;4975389;28;20186;-88
2022/08/24 13:15:24;;;;;;;3.17;1.48;;;30.80;70.90;;;;;;4969485;28;20237;-88
2022/08/24 13:17:52;;;;;;;3.03;1.67;;;30.80;71.10;;;;;;4981401;28;20183;-89
2022/08/24 13:20:18;;;;;;;2.28;1.63;;;30.80;70.90;;;;;;4974612;28;20203;-90
2022/08/24 13:23:18;;;;;;;1.95;1.38;;;30.90;70.60;;;;;;4991786;28;20242;-89
2022/08/24 13:25:49;;;;;;;3.00;1.40;;;30.90;69.40;;;;;;4974380;28;20540;-88
2022/08/24 13:28:23;;;;;;;4.25;1.50;;;30.90;68.90;;;;;;4960559;28;20184;-89